Humboldt, Tennessee
Current Conditions -  °F | °C
As of 12:08 AM on Monday 26 Jan 2015 (Local Time) from KMKL Reporting Station
Overcast Overcast  
Wind Chill: 31°   Ceiling: 1400
Heat Index: 40°   Visibility: 10mi
Dew Point: 35°   Wind: 17mph
Humidity: 83%   Direction: 330°NNW
Pressure: 29.89"   Gusts: 25mph
Location:  35.82°N, 88.91°W
Report Text: KMKL 260608Z AUTO 33015G22KT 10SM SCT009 OVC014 04/02 A2989 RMK AO2 T00440017
Loading
Personal Weather Stations






























Interactive Weather Map New forecast layout! Learn more

10-Day Weather Forecast

Advertisements
Track Severe Weather on mobile